Atoka, New Mexico
Current Conditions -  °F | °C
As of 6:53 AM on Saturday 01 Nov 2014 (Local Time) from KCNM Reporting Station
Clear Clear  
Wind Chill: 42°   Ceiling: Unl
Heat Index: 45°   Visibility: 10mi
Dew Point: 33°   Wind: 6mph
Humidity: 63%   Direction: 170°S
Pressure: 30.24"   Gusts: NA
Location:  32.7449°N, 104.256°W
Report Text: KCNM 011253Z AUTO 17005KT 10SM CLR 07/01 A3024 RMK AO2 SLP218 T00720006 $
Loading
Personal Weather Stations






























Interactive Weather Map
Tropical Storm Tracking
New forecast layout! Learn more

10-Day Weather Forecast

Advertisements
Track Severe Weather on mobile